الصفحة الرئيسية
METAR-TAF:

METAR-TAF

مطار :

لارنكا, قبرص

مطار لارنكا الدولي

دائرة عرض: 34-53N, خط طول: 033-38E, ارتفاع: 2 متر

مراقبة الطقس الحالي

تاريخ ووقت الإصدار 23 دقيقة قبل الساعة 18:00UTC
ريح 7 عقدة من الشمال الغربي, الاتجاه يتراوح بين الغرب و الشمال/الشمال الغربي
درجة الحرارة 12°درجة مئوية
الرطوبة 82%
ضغط 1013 hPa
الرؤية 10 كم أو أكثر
الغيوم لا تقل 1500 م ولا وجود لمزنة ركامية السحاب الأسود

METAR: LCLK 181800Z 32007KT 270V340 CAVOK 12/09 Q1013 NOSIG

زمن: 20:23 (18:23 UTC)

توقعات

تاريخ ووقت الإصدار 53 دقيقة قبل الساعة 17:30UTC
التوقعات صالحة من18 الساعة 18 UTC إلى 19 الساعة 18 UTC
ريح 7 عقدة من الشمال الغربي
الرؤية 10 كم أو أكثر
غيوم قليلة على ارتفاع 3000 قدم
أصبح
من 19 الساعة 08 UTC إلى 19 الساعة 12 UTC
ريح 12 عقدة من الجنوب/الجنوب الغربي

TAF: LCLK 181730Z 1818/1918 31007KT 9999 FEW030 BECMG 1908/1912 21012KT

أرصاد الطقس والتوقعات من أكثر من 4000 مطار (تقارير الطقس للمطار METAR والتنبؤ بالطقس بالمطارTAF).

المحطات المتاحة هي النقط الصفراء والحمراء على الخريطة.

حرك المؤشر فوق النقطة لمعرفة اسم المحطة.

ثم انقر لمعرفة أرصاد وتوقعات الطقس.

لتغيير الخارطة: اضغط على الأزرار الخضراء مع رمز الصليب الأسود للتكبير. على الزر الأخضر مع شرطة للتصغير، أو على الأسهم الخضراء للخرائط المجاورة.


METAR-TAF: